• Join FlightAware (Why Join?)
  • Login
  • US Flag 
08:38PM EDT


 

Airport Tracker/Info


-or-


 

Live Flight TrackerFlight Track Log ✈ AAY805 ✈ 26-Jun-2014 ✈ KCHA - KPIE

Flight Track Log - Related Links

Times and Time Zones

All times are in EDT time to prevent confusion due to time zone crossing. See the AAY805 flight status page for this flight to view local times or setup timezone preferences in your user account.

Time Position Orientation Groundspeed Altitude Reporting Facility
EDT Latitude Longitude Course Direction KTS MPH feet Rate Location/Type
01:59PM 34.8822 -85.2086 158° South 232 267 5,600  Level Atlanta Center
02:00PM 34.8139 -85.1672 154° Southeast 253 291 8,400 2,160 Climbing Atlanta Center
02:03PM 34.4697 -84.8765 158° South  Level FlightAware Approximate
02:06PM 34.3837 -84.6028 121° Southeast 411 473 20,700  Level FlightAware ADS-B (KDZJ)
02:06PM 34.4064 -84.6456 165° South 387 445 20,100 1,500 Descending Atlanta Center
02:06PM 34.3375 -84.5284 131° Southeast 422 486 21,700 1,560 Climbing FlightAware ADS-B (KDZJ)
02:07PM 34.3400 -84.5319 125° Southeast 406 467 21,700 1,620 Level Atlanta Center
02:07PM 34.2810 -84.4625 140° Southeast 423 487 22,800 1,500 Climbing FlightAware ADS-B (KDZJ)
02:08PM 34.2211 -84.4108 148° Southeast 414 476 23,100 240 Climbing FlightAware ADS-B (KDZJ)
02:08PM 34.2528 -84.4358 138° Southeast 413 475 23,000 1,380 Descending Atlanta Center
02:08PM 34.1707 -84.3783 153° Southeast 417 480 23,800 1,080 Climbing FlightAware ADS-B (KDZJ)
02:09PM 34.1425 -84.3575 150° Southeast 418 481 24,100 1,080 Climbing Atlanta Center
02:10PM 34.0236 -84.3169 164° South 418 481 25,500 1,260 Climbing Atlanta Center
02:13PM 33.6711 -84.1886 163° South 446 513 29,200 1,140 Climbing Atlanta Center
02:14PM 33.5417 -84.1783 176° South 451 519 30,100 960 Climbing Atlanta Center
02:15PM 33.4122 -84.1856 183° South 451 519 31,200 1,200 Climbing Atlanta Center
02:16PM 33.2869 -84.1953 184° South 456 525 32,500 1,200 Climbing Atlanta Center
02:17PM 33.1597 -84.2025 183° South 456 525 33,700 840 Climbing Atlanta Center
02:18PM 33.0364 -84.2122 184° South 456 525 34,200 600 Climbing Atlanta Center
02:19PM 32.9069 -84.2219 184° South 461 531 34,900 720 Climbing Atlanta Center
02:20PM 32.8089 -84.2292 184° South 461 531 35,700 900 Climbing Atlanta Center
02:21PM 32.6711 -84.2361 182° South 454 522 36,800 600 Climbing Atlanta Center
02:22PM 32.5458 -84.2458 184° South 454 522 37,000 60 Climbing Atlanta Center
02:23PM 32.4247 -84.2553 184° South 449 517 37,000  Level Atlanta Center
02:24PM 32.2994 -84.2625 183° South 449 517 37,000  Level Atlanta Center
02:25PM 32.1764 -84.2719 184° South 449 517 37,000  Level Atlanta Center
02:25PM 32.0733 -84.2778 183° South 451 519 37,000  Level Jacksonville Center
02:26PM 31.9481 -84.2858 183° South 457 526 37,000  Level Jacksonville Center
02:27PM 31.8228 -84.2764 176° South 457 526 37,000  Level Jacksonville Center
02:34PM 31.0291 -84.1203 171° South 463 533 37,000  Level FlightAware ADS-B (KTLH)
02:35PM 30.8727 -84.0906 171° South 463 533 37,100  Climbing FlightAware ADS-B (KTLH)
02:36PM 30.7988 -84.0658 162° South 464 534 37,000 -120 Descending FlightAware ADS-B (KTLH)
02:36PM 30.7170 -84.0361 163° South 463 533 37,000  Level FlightAware ADS-B (KTLH)
02:37PM 30.6622 -84.0165 163° South 462 532 37,000  Level FlightAware ADS-B (KTLH)
02:37PM 30.5924 -83.9917 163° South 462 532 37,000  Level FlightAware ADS-B (KTLH)
02:38PM 30.5186 -83.9654 163° South 462 532 37,000  Level FlightAware ADS-B (KTLH)
02:38PM 30.4522 -83.9418 163° South 462 532 37,000  Level FlightAware ADS-B (KTLH)
02:39PM 30.4002 -83.9234 163° South 462 532 37,000  Level FlightAware ADS-B (KTLH)
02:39PM 30.3295 -83.8983 163° South 462 532 37,000 -240 Level FlightAware ADS-B (KTLH)
02:40PM 30.2726 -83.8781 163° South 462 532 36,800 -420 Descending FlightAware ADS-B (KTLH)
02:40PM 30.2038 -83.8539 163° South 461 531 36,600 -480 Descending FlightAware ADS-B (KTLH)
02:41PM 30.1262 -83.8265 163° South 462 532 36,300 -780 Descending FlightAware ADS-B (KTLH)
02:42PM 30.0521 -83.8003 163° South 464 534 35,700 -960 Descending FlightAware ADS-B (KTLH)
02:42PM 29.9544 -83.7675 163° South 458 527 35,000 -960 Descending Jacksonville Center
02:43PM 29.8317 -83.7233 163° South 458 527 34,000 -1,020 Descending Jacksonville Center
02:44PM 29.7067 -83.6817 164° South 458 527 33,000 -1,020 Descending Jacksonville Center
02:45PM 29.5817 -83.6378 163° South 458 527 32,000 -1,380 Descending Jacksonville Center
02:46PM 29.4567 -83.5961 164° South 458 527 30,300 -2,400 Descending Jacksonville Center
02:47PM 29.3317 -83.5500 162° South 463 533 27,300 -2,280 Descending Jacksonville Center
02:48PM 29.4279 -83.5830 163° South  Level FlightAware Approximate
02:48PM 29.2086 -83.5039 162° South 468 539 25,800  Level Jacksonville Center
02:49PM 29.0983 -83.4319 150° Southeast 463 533 24,900 -1,440 Descending Jacksonville Center
02:50PM 28.9881 -83.3625 151° Southeast 457 526 23,000 -1,920 Descending Jacksonville Center
02:51PM 28.8819 -83.2933 150° Southeast 451 519 21,100 -1,860 Descending Jacksonville Center
02:52PM 28.7797 -83.2289 151° Southeast 439 505 19,300 -1,800 Descending Jacksonville Center
02:54PM 28.5833 -83.1000 150° Southeast 412 474 15,700 -1,800 Descending Tampa TRACON
02:55PM 28.5000 -83.0500 152° Southeast 400 460 14,200 -2,100 Descending Tampa TRACON
02:56PM 28.4000 -82.9833 150° Southeast 390 449 11,800 -1,860 Descending Tampa TRACON
02:57PM 28.3000 -82.9500 164° South 358 412 10,700 -1,020 Descending Tampa TRACON
02:58PM 28.2167 -82.9167 161° South 319 367 9,900 -1,440 Descending Tampa TRACON
02:59PM 28.1333 -82.9000 170° South 300 345 7,900 -2,040 Descending Tampa TRACON
03:00PM 28.0667 -82.8833 168° South 294 338 5,800 -1,440 Descending Tampa TRACON
03:03PM 27.9106 -82.8156 159° South 281 323 3,300 -1,020 Descending Miami Center
03:03PM 27.8500 -82.7833 155° Southeast 219 252 2,700 -780 Descending Tampa TRACON
03:04PM 27.8167 -82.7500 139° Southeast 175 201 1,900 -600 Descending Tampa TRACON
03:05PM 27.8167 -82.7000 90° East 177 204 1,500 -600 Descending Tampa TRACON
03:06PM 27.8667 -82.6833 16° North 149 171 800 -720 Descending Tampa TRACON